Time;durP1;ratioP1;P1;durP2;ratioP2;P2;SDS_P1;SDS_P2;PMS_P1;PMS_P2;Temp;Humidity;BMP_temperature;BMP_pressure;BME280_temperature;BME280_humidity;BME280_pressure;Samples;Min_cycle;Max_cycle;Signal;HPM_P1;HPM_P2
2022/04/01 00:02:40;;;;;;;5.40;3.70;;;;;;;3.98;66.28;97156.70;233067;1220;137279;-56
2022/04/01 00:07:44;;;;;;;5.10;3.90;;;;;;;3.97;66.41;97154.86;233147;1219;137551;-56
2022/04/01 00:12:47;;;;;;;5.30;3.50;;;;;;;3.95;66.27;97149.19;233108;1220;139316;-55
2022/04/01 00:17:50;;;;;;;4.30;3.90;;;;;;;3.93;66.32;97140.22;233264;1220;138506;-56
2022/04/01 00:22:55;;;;;;;3.90;3.10;;;;;;;3.92;66.34;97132.23;233080;1220;137973;-56
2022/04/01 00:27:58;;;;;;;3.30;3.00;;;;;;;3.92;66.34;97129.77;232972;1219;138626;-57
2022/04/01 00:33:01;;;;;;;4.90;3.20;;;;;;;3.94;66.55;97127.48;233018;1220;138546;-56
2022/04/01 00:38:04;;;;;;;4.40;3.50;;;;;;;4.00;66.46;97129.54;233273;1220;138138;-56
2022/04/01 00:43:10;;;;;;;4.60;3.50;;;;;;;4.05;66.43;97132.39;233170;1220;137793;-57
2022/04/01 00:48:13;;;;;;;4.00;3.60;;;;;;;4.04;66.30;97130.14;233281;1220;138319;-57
2022/04/01 00:53:22;;;;;;;3.90;3.50;;;;;;;4.03;66.33;97122.69;233262;1220;137806;-58
2022/04/01 00:58:25;;;;;;;5.80;3.70;;;;;;;3.98;66.28;97124.80;233242;1220;139012;-57
2022/04/01 01:03:28;;;;;;;3.70;3.40;;;;;;;3.93;66.18;97125.99;233462;1219;138103;-58
2022/04/01 01:08:31;;;;;;;4.60;3.30;;;;;;;3.90;66.37;97126.91;233211;1220;137719;-57
2022/04/01 01:13:35;;;;;;;3.70;3.30;;;;;;;3.88;66.43;97126.90;233183;1219;138354;-57
2022/04/01 01:18:39;;;;;;;4.80;3.20;;;;;;;3.85;66.54;97123.91;233285;1219;138288;-58
2022/04/01 01:23:42;;;;;;;3.40;3.10;;;;;;;3.85;66.44;97119.65;233354;1219;138843;-57
2022/04/01 01:28:45;;;;;;;4.10;3.10;;;;;;;3.91;66.63;97121.02;233338;1219;139882;-56
2022/04/01 01:33:50;;;;;;;4.60;3.60;;;;;;;3.97;66.75;97119.95;233292;1219;138594;-56
2022/04/01 01:38:53;;;;;;;4.50;3.60;;;;;;;3.98;66.53;97115.45;233218;1220;137978;-57
2022/04/01 01:43:56;;;;;;;3.80;3.40;;;;;;;4.01;66.58;97107.72;233333;1217;138439;-57
2022/04/01 01:49:00;;;;;;;4.30;3.50;;;;;;;3.98;66.54;97102.65;233315;1217;138119;-57
2022/04/01 01:59:26;;;;;;;4.10;3.70;;;;;;;3.92;66.49;97086.98;233463;1216;137843;-55
2022/04/01 02:04:29;;;;;;;4.60;3.70;;;;;;;3.86;66.49;97086.95;233579;1217;139283;-57
2022/04/01 02:09:32;;;;;;;3.60;3.30;;;;;;;3.84;66.67;97086.24;233394;1217;138248;-56
2022/04/01 02:14:36;;;;;;;3.80;3.10;;;;;;;3.86;66.60;97083.50;233694;1217;138193;-55
2022/04/01 02:19:39;;;;;;;3.60;3.20;;;;;;;3.90;66.77;97081.13;233500;1217;138246;-56
2022/04/01 02:24:43;;;;;;;3.60;3.10;;;;;;;3.91;66.56;97076.14;233516;1217;138353;-57
2022/04/01 02:29:46;;;;;;;3.90;3.30;;;;;;;3.92;66.75;97074.52;233513;1217;138802;-56
2022/04/01 02:35:09;;;;;;;4.20;3.50;;;;;;;3.92;66.69;97070.30;233364;1217;138964;-57
2022/04/01 02:40:15;;;;;;;3.70;3.30;;;;;;;3.87;66.41;97067.95;233139;1217;138051;-56
2022/04/01 02:45:18;;;;;;;4.00;3.60;;;;;;;3.82;66.49;97071.96;233561;1217;138112;-56
2022/04/01 02:50:21;;;;;;;4.60;3.70;;;;;;;3.80;66.61;97078.82;233474;1217;138342;-56
2022/04/01 02:55:24;;;;;;;4.00;3.50;;;;;;;3.78;66.83;97077.32;233393;1217;138179;-57
2022/04/01 03:00:28;;;;;;;4.10;3.40;;;;;;;3.76;66.77;97076.95;233400;1217;138598;-56
2022/04/01 03:05:39;;;;;;;3.30;3.00;;;;;;;3.76;66.81;97072.17;233272;1217;138233;-57
2022/04/01 03:10:43;;;;;;;3.50;3.20;;;;;;;3.83;66.97;97067.70;233313;1217;138506;-57
2022/04/01 03:15:47;;;;;;;3.50;3.20;;;;;;;3.89;66.82;97063.79;233249;1217;139459;-55
2022/04/01 03:21:03;;;;;;;3.80;3.40;;;;;;;3.90;66.89;97065.30;233417;1217;139630;-58
2022/04/01 03:26:07;;;;;;;6.80;3.30;;;;;;;3.89;66.80;97067.48;233561;1217;138143;-56
2022/04/01 03:31:37;;;;;;;4.20;3.70;;;;;;;3.88;66.84;97066.84;233229;1217;137972;-56
2022/04/01 03:36:40;;;;;;;3.50;3.20;;;;;;;3.85;66.79;97061.27;233471;1217;138066;-56
2022/04/01 03:41:44;;;;;;;4.00;3.20;;;;;;;3.81;66.83;97061.21;233589;1217;138614;-55
2022/04/01 03:46:56;;;;;;;4.50;3.70;;;;;;;3.76;66.81;97062.08;233431;1217;138120;-57
2022/04/01 03:52:01;;;;;;;5.20;3.40;;;;;;;3.72;66.91;97057.58;233619;1217;138868;-55
2022/04/01 03:57:07;;;;;;;4.10;3.20;;;;;;;3.69;66.97;97051.80;233372;1217;139246;-56
2022/04/01 04:02:33;;;;;;;3.90;3.20;;;;;;;3.76;67.13;97057.13;233426;1217;140129;-58
2022/04/01 04:07:39;;;;;;;3.80;3.40;;;;;;;3.80;67.04;97052.88;233152;1217;138455;-56
2022/04/01 04:12:46;;;;;;;3.70;3.10;;;;;;;3.84;67.07;97057.14;233562;1217;138183;-56
2022/04/01 04:17:53;;;;;;;;;;;;;;;3.84;66.95;97059.05;233476;1217;138417;-56
2022/04/01 04:23:29;;;;;;;3.40;3.10;;;;;;;3.82;66.98;97060.09;233583;1217;124217;-56
2022/04/01 04:28:37;;;;;;;3.70;3.30;;;;;;;3.78;66.93;97060.32;233418;1217;138162;-55
2022/04/01 04:34:04;;;;;;;3.10;2.80;;;;;;;3.74;67.04;97065.66;233216;1217;138490;-56
2022/04/01 04:39:16;;;;;;;4.10;3.40;;;;;;;3.72;67.07;97070.89;233266;1217;138008;-56
2022/04/01 04:44:29;;;;;;;3.40;3.10;;;;;;;3.70;67.09;97055.92;233376;1217;138082;-56
2022/04/01 04:49:32;;;;;;;2.80;2.50;;;;;;;3.71;67.05;97058.02;233573;1217;138578;-55
2022/04/01 04:54:40;;;;;;;3.10;2.80;;;;;;;3.73;67.03;97070.11;233426;1217;139458;-55
2022/04/01 05:00:06;;;;;;;3.90;3.00;;;;;;;3.82;67.13;97083.39;233486;1217;138458;-57
2022/04/01 05:05:51;;;;;;;3.50;2.60;;;;;;;3.87;67.00;97072.56;233584;1217;137828;-56
2022/04/01 05:11:03;;;;;;;4.70;3.10;;;;;;;3.87;67.09;97079.90;233290;1217;138032;-56
2022/04/01 05:16:17;;;;;;;4.60;3.40;;;;;;;3.84;66.99;97078.53;233260;1217;139021;-56
2022/04/01 05:21:23;;;;;;;4.30;3.90;;;;;;;3.84;66.96;97088.52;233434;1217;139427;-57
2022/04/01 05:26:40;;;;;;;4.70;3.70;;;;;;;3.84;66.95;97090.48;233377;1215;139071;-55
2022/04/01 05:31:54;;;;;;;5.80;3.90;;;;;;;3.80;66.97;97098.05;233326;1215;137825;-57
2022/04/01 05:36:57;;;;;;;4.90;3.50;;;;;;;3.79;66.97;97104.26;233471;1217;138489;-57
2022/04/01 05:42:04;;;;;;;3.70;3.20;;;;;;;3.80;67.13;97101.06;233553;1217;138705;-57
2022/04/01 05:47:12;;;;;;;4.30;3.70;;;;;;;3.85;67.12;97107.89;233420;1216;139774;-54
2022/04/01 05:52:15;;;;;;;4.00;3.60;;;;;;;3.89;67.26;97109.80;233355;1217;138559;-56
2022/04/01 05:57:20;;;;;;;4.70;3.80;;;;;;;3.92;67.21;97116.77;233357;1217;138221;-55
2022/04/01 06:02:52;;;;;;;7.30;3.70;;;;;;;3.92;66.94;97114.11;233517;1215;138350;-55
2022/04/01 06:07:58;;;;;;;4.20;3.50;;;;;;;3.91;66.87;97117.89;233366;1217;137636;-56
2022/04/01 06:13:06;;;;;;;4.00;3.40;;;;;;;3.90;66.77;97119.55;233446;1217;139819;-59
2022/04/01 06:19:02;;;;;;;4.00;3.40;;;;;;;3.87;66.82;97114.81;233345;1217;138118;-58
2022/04/01 06:24:16;;;;;;;3.60;3.30;;;;;;;3.86;66.89;97117.02;233475;1216;137815;-57
2022/04/01 06:29:43;;;;;;;32.90;25.30;;;;;;;3.89;67.33;97115.36;233457;1217;137737;-57
2022/04/01 06:35:02;;;;;;;3.60;2.80;;;;;;;4.09;67.68;97114.42;233398;1217;139182;-56
2022/04/01 06:40:40;;;;;;;4.20;3.00;;;;;;;4.16;67.10;97111.14;233330;1214;139657;-57
2022/04/01 06:45:44;;;;;;;3.90;3.00;;;;;;;4.17;66.85;97111.73;233416;1217;138786;-57
2022/04/01 06:51:08;;;;;;;4.10;3.30;;;;;;;4.17;66.74;97116.11;233347;1217;138729;-56
2022/04/01 06:56:30;;;;;;;4.80;3.30;;;;;;;4.15;66.73;97122.73;233420;1215;138561;-55
2022/04/01 07:01:34;;;;;;;3.80;3.40;;;;;;;4.11;66.73;97124.08;233448;1216;138351;-57
2022/04/01 07:06:37;;;;;;;3.90;3.20;;;;;;;4.09;66.74;97120.38;233493;1216;137923;-57
2022/04/01 07:11:40;;;;;;;22.50;16.00;;;;;;;4.10;67.02;97120.48;233327;1217;138827;-57
2022/04/01 07:16:43;;;;;;;5.40;4.00;;;;;;;4.17;66.96;97119.63;233474;1217;139051;-57
2022/04/01 07:21:46;;;;;;;5.20;3.20;;;;;;;4.17;66.68;97122.32;233257;1217;140450;-56
2022/04/01 07:26:49;;;;;;;5.50;3.20;;;;;;;4.21;66.85;97127.96;233011;1217;138932;-55
2022/04/01 07:37:21;;;;;;;4.10;3.10;;;;;;;4.26;66.50;97118.66;233527;1217;139758;-57
2022/04/01 07:42:45;;;;;;;4.40;3.40;;;;;;;4.23;66.76;97113.83;233205;1217;138519;-56
2022/04/01 07:47:50;;;;;;;4.30;2.90;;;;;;;4.25;66.66;97119.45;233173;1217;138509;-55
2022/04/01 07:52:53;;;;;;;366.20;234.30;;;;;;;4.25;66.78;97127.00;233220;1218;138278;-55
2022/04/01 07:57:57;;;;;;;16.10;10.80;;;;;;;4.34;66.76;97129.02;233156;1214;140208;-56
2022/04/01 08:03:19;;;;;;;7.60;5.00;;;;;;;4.34;66.53;97126.41;233561;1217;139125;-55
2022/04/01 08:08:23;;;;;;;158.10;98.20;;;;;;;4.30;66.49;97133.71;233446;1217;139484;-57
2022/04/01 08:13:26;;;;;;;7.50;4.50;;;;;;;4.30;66.59;97137.23;233625;1217;138364;-56
2022/04/01 08:18:29;;;;;;;107.90;73.40;;;;;;;4.34;66.77;97135.73;233361;1217;138744;-57
2022/04/01 08:23:35;;;;;;;7.20;4.70;;;;;;;4.52;66.91;97138.71;233475;1217;140269;-58
2022/04/01 08:28:39;;;;;;;4.90;3.60;;;;;;;4.57;66.62;97135.35;233317;1217;138801;-57
2022/04/01 08:33:44;;;;;;;4.30;3.00;;;;;;;4.58;66.53;97144.11;233187;1217;138592;-57
2022/04/01 08:38:47;;;;;;;3.30;3.00;;;;;;;4.56;66.54;97143.90;233373;1217;138880;-57
2022/04/01 08:43:52;;;;;;;4.50;3.10;;;;;;;4.53;66.27;97143.39;233439;1217;139095;-58
2022/04/01 08:48:55;;;;;;;4.50;3.50;;;;;;;4.54;66.17;97141.08;233342;1217;138423;-58
2022/04/01 08:53:58;;;;;;;3.60;3.30;;;;;;;4.51;66.34;97143.46;233382;1216;139136;-57
2022/04/01 08:59:01;;;;;;;104.60;72.70;;;;;;;4.54;66.26;97150.33;233294;1217;138562;-59
2022/04/01 09:04:22;;;;;;;184.40;101.20;;;;;;;4.61;66.77;97150.59;233213;1217;139859;-57
2022/04/01 09:09:27;;;;;;;7.20;3.80;;;;;;;4.71;66.32;97150.77;233284;1217;140106;-57
2022/04/01 09:14:30;;;;;;;5.90;4.00;;;;;;;4.69;66.14;97156.48;233314;1217;138762;-57
2022/04/01 09:19:36;;;;;;;5.50;3.80;;;;;;;4.70;66.23;97157.44;233408;1217;138292;-58
2022/04/01 09:24:52;;;;;;;3.80;3.30;;;;;;;4.69;65.94;97154.23;233178;1217;138642;-58
2022/04/01 09:29:56;;;;;;;4.00;3.00;;;;;;;4.67;66.26;97151.91;233211;1217;138451;-58
2022/04/01 09:35:00;;;;;;;3.70;3.10;;;;;;;4.65;65.98;97150.43;233156;1217;138533;-57
2022/04/01 09:40:03;;;;;;;3.80;3.30;;;;;;;4.64;66.01;97153.00;233228;1217;138953;-58
2022/04/01 09:45:07;;;;;;;83.70;58.10;;;;;;;4.65;66.20;97155.38;233223;1217;139358;-57
2022/04/01 09:50:15;;;;;;;9.00;6.50;;;;;;;4.75;66.51;97156.27;233220;1218;139598;-57
2022/04/01 09:55:19;;;;;;;5.10;3.90;;;;;;;4.79;66.39;97161.30;233359;1217;137654;-56
2022/04/01 10:00:27;;;;;;;4.10;3.30;;;;;;;4.76;66.14;97160.27;233077;1217;138216;-57
2022/04/01 10:05:31;;;;;;;13.30;9.20;;;;;;;4.80;66.53;97159.98;233249;1217;138925;-57
2022/04/01 10:10:35;;;;;;;4.50;3.40;;;;;;;4.92;66.32;97156.13;233236;1217;138912;-56
2022/04/01 10:15:41;;;;;;;4.20;3.00;;;;;;;4.91;65.97;97156.57;233107;1219;138508;-56
2022/04/01 10:20:44;;;;;;;4.20;2.90;;;;;;;4.86;65.75;97165.19;233178;1217;138393;-57
2022/04/01 10:26:02;;;;;;;4.10;3.20;;;;;;;4.81;65.97;97165.50;233447;1217;138884;-57
2022/04/01 10:31:12;;;;;;;3.30;3.00;;;;;;;4.78;65.66;97163.81;233304;1217;138624;-57
2022/04/01 10:36:22;;;;;;;3.30;3.00;;;;;;;4.73;65.70;97167.08;233442;1217;140609;-57
2022/04/01 10:41:25;;;;;;;3.70;2.90;;;;;;;4.68;65.91;97172.19;233402;1217;137957;-56
2022/04/01 10:46:28;;;;;;;3.80;2.50;;;;;;;4.62;65.55;97178.42;233315;1217;138854;-55
2022/04/01 10:51:37;;;;;;;3.40;2.80;;;;;;;4.56;65.60;97175.32;233322;1217;138448;-57
2022/04/01 10:56:43;;;;;;;3.00;2.70;;;;;;;4.48;65.75;97175.98;232904;1217;138186;-56
2022/04/01 11:01:52;;;;;;;4.50;3.00;;;;;;;4.45;65.90;97172.70;233474;1217;137923;-57
2022/04/01 11:07:05;;;;;;;3.90;3.10;;;;;;;4.47;66.06;97172.39;233272;1217;139704;-56
2022/04/01 11:12:14;;;;;;;4.00;2.60;;;;;;;4.50;66.03;97179.17;233219;1217;139182;-56
2022/04/01 11:17:17;;;;;;;4.00;3.20;;;;;;;4.50;65.72;97180.27;233229;1217;139005;-56
2022/04/01 11:22:48;;;;;;;4.70;3.10;;;;;;;4.50;65.97;97182.84;233378;1217;137900;-56
2022/04/01 11:28:02;;;;;;;4.00;3.20;;;;;;;4.49;65.74;97189.26;233196;1217;140348;-56
2022/04/01 11:33:13;;;;;;;4.70;3.10;;;;;;;4.47;65.90;97192.60;233054;1217;138340;-53
2022/04/01 11:38:19;;;;;;;3.70;2.80;;;;;;;4.44;65.79;97195.39;233174;1217;138761;-55
2022/04/01 11:43:24;;;;;;;3.60;3.10;;;;;;;4.43;65.90;97197.05;233315;1217;140658;-54
2022/04/01 11:48:30;;;;;;;3.60;3.10;;;;;;;4.40;66.02;97200.80;233157;1217;138345;-55
2022/04/01 11:53:35;;;;;;;4.00;3.20;;;;;;;4.35;65.77;97207.97;233231;1217;138754;-56
2022/04/01 11:58:51;;;;;;;4.50;3.30;;;;;;;4.31;65.86;97209.81;233255;1217;138379;-58
2022/04/01 12:04:11;;;;;;;3.40;3.10;;;;;;;4.32;65.80;97205.02;233125;1217;139000;-56
2022/04/01 12:09:14;;;;;;;3.40;2.90;;;;;;;4.37;65.96;97208.55;233195;1217;139813;-57
2022/04/01 12:14:25;;;;;;;3.70;3.20;;;;;;;4.39;65.98;97206.65;233256;1217;139115;-55
2022/04/01 12:19:30;;;;;;;4.20;3.60;;;;;;;4.40;66.02;97209.08;233372;1217;139837;-57
2022/04/01 12:24:38;;;;;;;5.20;3.80;;;;;;;4.36;65.70;97201.39;233198;1217;138792;-56
2022/04/01 12:29:44;;;;;;;5.40;3.90;;;;;;;4.32;65.75;97203.25;233235;1217;139848;-56
2022/04/01 12:34:48;;;;;;;5.80;4.10;;;;;;;4.30;65.94;97201.45;232873;1217;138204;-56
2022/04/01 12:39:58;;;;;;;4.70;4.10;;;;;;;4.31;65.97;97205.11;233066;1217;137749;-57
2022/04/01 12:45:01;;;;;;;4.80;4.10;;;;;;;4.35;66.09;97204.14;233173;1217;138783;-55
2022/04/01 12:50:04;;;;;;;4.20;3.80;;;;;;;4.40;66.15;97208.66;233332;1217;137876;-56
2022/04/01 12:55:22;;;;;;;4.50;3.90;;;;;;;4.45;66.20;97206.75;233191;1217;138651;-57
2022/04/01 13:00:26;;;;;;;5.20;4.20;;;;;;;4.57;66.29;97206.85;233287;1217;139249;-56
2022/04/01 13:05:29;;;;;;;4.80;4.10;;;;;;;4.68;66.36;97205.91;232910;1217;138847;-56
2022/04/01 13:10:32;;;;;;;5.00;4.20;;;;;;;4.75;66.41;97208.27;233210;1217;138498;-55
2022/04/01 13:15:35;;;;;;;5.80;4.30;;;;;;;4.79;66.13;97209.77;233153;1217;137788;-57
2022/04/01 13:20:38;;;;;;;4.80;4.10;;;;;;;4.80;65.90;97208.83;233219;1217;138734;-57
2022/04/01 13:25:41;;;;;;;3.70;3.30;;;;;;;4.80;65.84;97213.06;233217;1217;137690;-56
2022/04/01 13:30:44;;;;;;;5.20;4.10;;;;;;;4.76;65.78;97218.02;233202;1217;138318;-56
2022/04/01 13:35:47;;;;;;;5.50;4.50;;;;;;;4.76;65.98;97217.67;233028;1217;138255;-57
2022/04/01 13:40:50;;;;;;;5.20;4.20;;;;;;;4.75;65.75;97219.15;233235;1217;139379;-57
2022/04/01 13:45:53;;;;;;;4.20;3.60;;;;;;;4.72;65.92;97214.81;233102;1217;138405;-55
2022/04/01 13:50:56;;;;;;;4.60;3.50;;;;;;;4.67;65.49;97215.10;233391;1217;138127;-56
2022/04/01 13:55:59;;;;;;;4.40;3.20;;;;;;;4.64;65.74;97217.45;233337;1217;138481;-56
2022/04/01 14:01:03;;;;;;;4.20;3.70;;;;;;;4.68;65.66;97218.95;233343;1217;138722;-57
2022/04/01 14:06:13;;;;;;;5.00;3.60;;;;;;;4.76;65.88;97217.36;233275;1217;138846;-54
2022/04/01 14:11:17;;;;;;;4.90;4.20;;;;;;;4.77;65.75;97216.03;233294;1217;138921;-56
2022/04/01 14:16:20;;;;;;;6.20;4.60;;;;;;;4.79;65.70;97219.58;233369;1217;138225;-56
2022/04/01 14:21:24;;;;;;;5.40;4.80;;;;;;;4.82;65.81;97227.13;233285;1217;138093;-57
2022/04/01 14:26:28;;;;;;;5.90;4.60;;;;;;;4.84;65.84;97229.23;233314;1217;138287;-57
2022/04/01 14:31:31;;;;;;;6.60;4.90;;;;;;;4.83;65.61;97232.86;233399;1217;138324;-56
2022/04/01 14:36:34;;;;;;;5.60;4.40;;;;;;;4.81;65.68;97239.70;233126;1217;138506;-56
2022/04/01 14:41:41;;;;;;;6.00;5.00;;;;;;;4.78;65.85;97244.45;233143;1217;139860;-54
2022/04/01 14:46:45;;;;;;;5.40;4.20;;;;;;;4.73;65.65;97247.56;233270;1217;137942;-57
2022/04/01 14:51:49;;;;;;;5.30;4.40;;;;;;;4.69;65.53;97247.14;233319;1217;138075;-59
2022/04/01 14:56:53;;;;;;;6.70;4.40;;;;;;;4.66;65.57;97247.04;233348;1217;138136;-56
2022/04/01 15:01:56;;;;;;;6.30;4.90;;;;;;;4.64;65.54;97251.15;233324;1217;138592;-59
2022/04/01 15:06:59;;;;;;;7.60;5.40;;;;;;;4.68;65.62;97251.95;233272;1217;138792;-56
2022/04/01 15:12:03;;;;;;;6.20;5.20;;;;;;;4.71;65.72;97251.73;233378;1217;138227;-57
2022/04/01 15:17:06;;;;;;;83.40;51.70;;;;;;;4.73;65.96;97254.92;233209;1217;138690;-57
2022/04/01 15:22:09;;;;;;;9.20;6.70;;;;;;;4.84;65.91;97248.08;233228;1217;139083;-55
2022/04/01 15:27:12;;;;;;;8.70;5.20;;;;;;;4.81;65.57;97251.45;233184;1217;140766;-57
2022/04/01 15:32:16;;;;;;;7.10;4.70;;;;;;;4.74;65.40;97245.92;233414;1217;138556;-57
2022/04/01 15:37:41;;;;;;;6.70;5.30;;;;;;;4.66;65.45;97246.83;233329;1217;139543;-57
2022/04/01 15:42:55;;;;;;;10.00;6.30;;;;;;;4.57;65.32;97254.11;233258;1217;138527;-57
2022/04/01 15:48:00;;;;;;;11.30;7.40;;;;;;;4.48;65.41;97258.74;233283;1217;138910;-56
2022/04/01 15:53:05;;;;;;;8.90;7.40;;;;;;;4.40;65.61;97265.77;233308;1216;138477;-54
2022/04/01 15:58:11;;;;;;;10.20;8.40;;;;;;;4.33;65.66;97272.88;233238;1217;138452;-56
2022/04/01 16:03:22;;;;;;;10.50;8.60;;;;;;;4.31;65.55;97283.36;233255;1217;139130;-56
2022/04/01 16:08:26;;;;;;;13.40;10.30;;;;;;;4.31;65.78;97288.44;233098;1217;139070;-55
2022/04/01 16:13:32;;;;;;;13.40;10.90;;;;;;;4.33;65.69;97287.83;233338;1217;139653;-56
2022/04/01 16:18:37;;;;;;;13.20;10.40;;;;;;;4.33;66.17;97294.31;233338;1217;138817;-55
2022/04/01 16:23:40;;;;;;;14.00;11.60;;;;;;;4.31;65.81;97296.55;233360;1217;139112;-56
2022/04/01 16:28:43;;;;;;;13.50;11.00;;;;;;;4.25;65.83;97301.30;233322;1217;138616;-55
2022/04/01 16:33:48;;;;;;;11.80;10.00;;;;;;;4.18;65.48;97307.91;233300;1217;139612;-57
2022/04/01 16:38:52;;;;;;;12.30;9.70;;;;;;;4.08;65.66;97315.02;233286;1217;138428;-56
2022/04/01 16:43:55;;;;;;;12.20;9.50;;;;;;;3.99;65.59;97317.51;233383;1215;138218;-57
2022/04/01 16:48:57;;;;;;;11.30;9.10;;;;;;;3.88;65.49;97324.89;233281;1217;138389;-57
2022/04/01 16:54:01;;;;;;;12.10;9.10;;;;;;;3.86;65.79;97327.86;233362;1217;139127;-58
2022/04/01 16:59:05;;;;;;;13.20;9.70;;;;;;;3.90;65.89;97333.89;233219;1217;139624;-58
2022/04/01 17:04:08;;;;;;;13.40;10.50;;;;;;;3.91;65.82;97335.20;233286;1217;139568;-58
2022/04/01 17:14:34;;;;;;;13.00;9.90;;;;;;;3.84;65.88;97342.86;233292;1217;138970;-59
2022/04/01 17:19:38;;;;;;;13.20;10.60;;;;;;;3.76;65.70;97342.85;233386;1217;137896;-59
2022/04/01 17:24:46;;;;;;;13.90;10.00;;;;;;;3.71;65.80;97351.04;233193;1217;139094;-59
2022/04/01 17:29:50;;;;;;;13.90;10.30;;;;;;;3.65;65.94;97352.85;233330;1217;138377;-60
2022/04/01 17:35:01;;;;;;;14.10;10.50;;;;;;;3.60;65.89;97360.29;233216;1217;139043;-57
2022/04/01 17:40:08;;;;;;;12.20;9.20;;;;;;;3.55;65.88;97374.77;233164;1217;140305;-59
2022/04/01 17:45:12;;;;;;;13.70;8.90;;;;;;;3.51;66.17;97376.45;233211;1215;139909;-58
2022/04/01 17:50:15;;;;;;;10.80;7.80;;;;;;;3.52;66.08;97380.58;233123;1217;140440;-58
2022/04/01 17:55:18;;;;;;;12.00;8.40;;;;;;;3.55;66.25;97383.02;233286;1215;139806;-59
2022/04/01 18:00:21;;;;;;;12.00;8.50;;;;;;;3.58;66.22;97382.51;233165;1217;138351;-58
2022/04/01 18:05:25;;;;;;;12.30;9.20;;;;;;;3.60;66.05;97385.23;233076;1216;138737;-56
2022/04/01 18:10:30;;;;;;;14.30;9.60;;;;;;;3.56;66.19;97391.38;233115;1217;138880;-56
2022/04/01 18:15:54;;;;;;;13.50;9.20;;;;;;;3.54;66.20;97391.53;232960;1217;138237;-57
2022/04/01 18:20:57;;;;;;;14.50;9.50;;;;;;;3.53;66.08;97396.51;233223;1217;139750;-58
2022/04/01 18:26:04;;;;;;;12.90;9.30;;;;;;;3.49;65.95;97399.91;233114;1216;140706;-60
2022/04/01 18:31:09;;;;;;;11.50;8.40;;;;;;;3.43;66.23;97397.77;233177;1216;138262;-57
2022/04/01 18:36:13;;;;;;;12.00;8.50;;;;;;;3.38;66.05;97393.34;233221;1216;139289;-57
2022/04/01 18:41:21;;;;;;;528.40;405.40;;;;;;;3.35;66.38;97396.34;233319;1217;138605;-56
2022/04/01 18:46:24;;;;;;;13.40;9.40;;;;;;;3.57;67.14;97395.36;233218;1216;139837;-58
2022/04/01 18:51:28;;;;;;;12.70;8.90;;;;;;;3.74;66.69;97398.75;233311;1216;138885;-57
2022/04/01 18:56:31;;;;;;;13.20;8.40;;;;;;;3.73;66.28;97394.04;233157;1217;138355;-57
2022/04/01 19:01:45;;;;;;;13.40;8.90;;;;;;;3.72;66.27;97395.88;233395;1217;138395;-57
2022/04/01 19:06:52;;;;;;;9.80;8.00;;;;;;;3.67;66.04;97395.97;233168;1216;139902;-57
2022/04/01 19:11:58;;;;;;;12.60;8.70;;;;;;;3.63;66.04;97391.70;233093;1217;141588;-57
2022/04/01 19:17:06;;;;;;;12.60;8.80;;;;;;;3.58;66.05;97395.68;233301;1215;138409;-57
2022/04/01 19:22:14;;;;;;;462.20;334.80;;;;;;;3.58;66.55;97396.71;233314;1217;138617;-57
2022/04/01 19:27:20;;;;;;;16.60;10.30;;;;;;;3.78;66.77;97398.67;233253;1216;138918;-55
2022/04/01 19:32:24;;;;;;;13.10;9.10;;;;;;;3.76;66.01;97399.80;233226;1217;138573;-58
2022/04/01 19:37:31;;;;;;;12.50;8.90;;;;;;;3.73;66.18;97401.94;233333;1217;140453;-58
2022/04/01 19:42:34;;;;;;;13.10;9.00;;;;;;;3.67;65.93;97402.98;233273;1217;140940;-58
2022/04/01 19:47:37;;;;;;;13.20;9.10;;;;;;;3.63;65.87;97405.02;233157;1217;139136;-56
2022/04/01 19:52:40;;;;;;;13.80;8.20;;;;;;;3.57;65.96;97401.14;233253;1217;138415;-58
2022/04/01 19:57:43;;;;;;;12.60;8.60;;;;;;;3.51;65.92;97405.91;233195;1217;138573;-55
2022/04/01 20:02:47;;;;;;;12.90;8.30;;;;;;;3.45;66.01;97410.30;233379;1217;138450;-56
2022/04/01 20:07:50;;;;;;;10.90;8.40;;;;;;;3.42;66.02;97412.23;233731;1217;138905;-53
2022/04/01 20:12:53;;;;;;;11.80;8.10;;;;;;;3.38;65.90;97412.84;233356;1217;139014;-55
2022/04/01 20:17:56;;;;;;;11.10;7.20;;;;;;;3.30;65.93;97415.71;233207;1216;138872;-56
2022/04/01 20:23:00;;;;;;;81.20;46.40;;;;;;;3.24;65.84;97423.63;233253;1217;138007;-58
2022/04/01 20:28:03;;;;;;;13.30;8.30;;;;;;;3.31;66.33;97423.37;233272;1217;139131;-56
2022/04/01 20:33:06;;;;;;;12.30;7.80;;;;;;;3.31;66.05;97429.00;233293;1217;139007;-56
2022/04/01 20:38:09;;;;;;;10.80;6.90;;;;;;;3.31;66.11;97431.48;233300;1215;138941;-57
2022/04/01 20:43:14;;;;;;;11.50;7.00;;;;;;;3.29;66.05;97426.46;233264;1217;140174;-55
2022/04/01 20:48:18;;;;;;;;;;;;;;;3.27;66.15;97430.96;233336;1217;138618;-57
2022/04/01 20:53:27;;;;;;;10.80;7.40;;;;;;;3.22;66.01;97435.51;233438;1217;124703;-57
2022/04/01 20:58:31;;;;;;;10.00;6.40;;;;;;;3.17;66.14;97440.34;233311;1217;138627;-58
2022/04/01 21:03:34;;;;;;;9.30;6.50;;;;;;;3.12;66.09;97445.70;233335;1217;138761;-56
2022/04/01 21:08:37;;;;;;;9.70;6.90;;;;;;;3.09;66.02;97448.53;233387;1217;140330;-57
2022/04/01 21:13:40;;;;;;;8.50;5.80;;;;;;;3.04;66.13;97455.98;233872;1217;138558;-56
2022/04/01 21:18:43;;;;;;;10.80;6.80;;;;;;;3.01;66.23;97459.13;233680;1217;138537;-59
2022/04/01 21:23:46;;;;;;;8.20;5.70;;;;;;;2.99;66.13;97462.23;233826;1217;139311;-58
2022/04/01 21:28:50;;;;;;;9.40;6.20;;;;;;;3.00;66.10;97464.05;233811;1217;138658;-58
2022/04/01 21:33:54;;;;;;;10.20;6.30;;;;;;;3.02;66.31;97465.91;233761;1217;138347;-58
2022/04/01 21:38:57;;;;;;;10.20;6.80;;;;;;;3.04;66.30;97464.89;233817;1217;138131;-55
2022/04/01 21:44:03;;;;;;;9.20;6.60;;;;;;;3.05;66.23;97463.77;234029;1217;138417;-54
2022/04/01 21:49:06;;;;;;;12.50;7.80;;;;;;;3.02;66.11;97455.20;233651;1217;138493;-57
2022/04/01 21:54:10;;;;;;;10.40;8.10;;;;;;;2.98;66.06;97456.51;233686;1217;138620;-55
2022/04/01 21:59:14;;;;;;;10.50;7.80;;;;;;;2.94;66.17;97456.56;233808;1217;138156;-56
2022/04/01 22:04:20;;;;;;;10.40;7.20;;;;;;;2.91;66.06;97452.32;233800;1217;138455;-56
2022/04/01 22:09:23;;;;;;;10.10;7.40;;;;;;;2.88;66.11;97455.48;233728;1217;138042;-55
2022/04/01 22:14:26;;;;;;;11.20;7.80;;;;;;;2.88;66.33;97452.86;233680;1217;139645;-56
2022/04/01 22:19:30;;;;;;;9.30;7.40;;;;;;;2.87;66.08;97449.41;233806;1217;138907;-56
2022/04/01 22:24:33;;;;;;;8.50;6.80;;;;;;;2.90;66.21;97448.52;233809;1217;140701;-57
2022/04/01 22:29:36;;;;;;;10.60;7.50;;;;;;;2.96;66.15;97443.97;233757;1216;138641;-56
2022/04/01 22:34:39;;;;;;;8.80;7.20;;;;;;;3.03;66.36;97439.20;233801;1216;138913;-58
2022/04/01 22:39:42;;;;;;;10.30;7.50;;;;;;;3.07;66.29;97440.89;233529;1217;140110;-57
2022/04/01 22:44:45;;;;;;;12.50;8.50;;;;;;;3.08;66.00;97437.36;233743;1217;137864;-57
2022/04/01 22:49:50;;;;;;;10.50;7.60;;;;;;;3.07;66.01;97437.89;233835;1217;139262;-56
2022/04/01 22:54:55;;;;;;;10.00;8.10;;;;;;;3.06;66.18;97440.27;233660;1217;138676;-53
2022/04/01 22:59:58;;;;;;;10.90;8.40;;;;;;;3.06;66.04;97438.85;233682;1214;138509;-55
2022/04/01 23:05:01;;;;;;;9.20;8.20;;;;;;;3.01;65.93;97440.20;233899;1217;138466;-53
2022/04/01 23:10:05;;;;;;;9.50;8.00;;;;;;;3.00;65.88;97437.46;233795;1217;138042;-53
2022/04/01 23:15:08;;;;;;;45.60;28.20;;;;;;;3.01;66.22;97437.71;233807;1217;138237;-57
2022/04/01 23:20:12;;;;;;;9.40;7.90;;;;;;;3.07;66.21;97435.95;233676;1217;138260;-55
2022/04/01 23:25:15;;;;;;;8.80;7.40;;;;;;;3.07;65.93;97434.23;233564;1217;138868;-57
2022/04/01 23:30:18;;;;;;;11.60;7.70;;;;;;;3.09;65.80;97427.83;233949;1217;138954;-55
2022/04/01 23:35:21;;;;;;;8.80;7.20;;;;;;;3.06;65.70;97423.59;233801;1217;139416;-58
2022/04/01 23:40:24;;;;;;;8.30;7.40;;;;;;;3.06;65.79;97422.20;233759;1217;137934;-55
2022/04/01 23:45:29;;;;;;;11.50;8.10;;;;;;;3.07;65.78;97422.53;233646;1217;139268;-54
2022/04/01 23:50:34;;;;;;;9.10;7.50;;;;;;;3.04;65.74;97418.98;233864;1217;137838;-54
2022/04/01 23:55:37;;;;;;;9.60;7.40;;;;;;;3.02;65.62;97417.92;233959;1217;138660;-57
